Time;durP1;ratioP1;P1;durP2;ratioP2;P2;SDS_P1;SDS_P2;PMS_P1;PMS_P2;Temp;Humidity;BMP_temperature;BMP_pressure;BME280_temperature;BME280_humidity;BME280_pressure;Samples;Min_cycle;Max_cycle;Signal;HPM_P1;HPM_P2
2023/01/10 00:02:04;;;;;;;;;;;7.50;99.90;;;;;;5047830;28;1918;-72
2023/01/10 00:04:31;;;;;;;;;;;7.50;99.90;;;;;;5047892;28;1287;-73
2023/01/10 00:06:59;;;;;;;;;;;7.50;99.90;;;;;;5070032;28;1152;-72
2023/01/10 00:09:26;;;;;;;;;;;7.60;99.90;;;;;;5067300;28;1064;-73
2023/01/10 00:14:41;;;;;;;;;;;7.50;99.90;;;;;;5052485;28;1268;-72
2023/01/10 00:17:09;;;;;;;;;;;7.50;99.90;;;;;;5046638;28;1652;-73
2023/01/10 00:19:36;;;;;;;;;;;7.60;99.90;;;;;;5043450;28;1208;-73
2023/01/10 00:22:17;;;;;;;;;;;7.60;99.90;;;;;;5045965;28;2006;-72
2023/01/10 00:24:45;;;;;;;;;;;7.70;99.90;;;;;;5043020;28;1500;-71
2023/01/10 00:27:15;;;;;;;;;;;7.60;99.90;;;;;;5042698;28;1088;-72
2023/01/10 00:29:45;;;;;;;;;;;7.50;99.90;;;;;;5045468;28;1049;-72
2023/01/10 00:32:13;;;;;;;;;;;7.50;99.90;;;;;;5045875;28;982;-72
2023/01/10 00:34:41;;;;;;;;;;;7.40;99.90;;;;;;5049217;28;1365;-71
2023/01/10 00:37:08;;;;;;;;;;;7.50;99.90;;;;;;5045632;28;1057;-71
2023/01/10 00:39:36;;;;;;;;;;;7.40;99.90;;;;;;5043817;28;1104;-72
2023/01/10 00:44:51;;;;;;;;;;;7.40;99.90;;;;;;5043766;28;1283;-71
2023/01/10 00:47:19;;;;;;;;;;;7.40;99.90;;;;;;5045847;28;1148;-72
2023/01/10 00:49:46;;;;;;;;;;;7.30;99.90;;;;;;5044042;28;1017;-73
2023/01/10 00:52:14;;;;;;;;;;;7.30;99.90;;;;;;5045637;28;1089;-72
2023/01/10 00:54:42;;;;;;;;;;;7.40;99.90;;;;;;5044470;28;1340;-72
2023/01/10 00:57:09;;;;;;;;;;;7.50;99.90;;;;;;5044447;28;1068;-72
2023/01/10 00:59:37;;;;;;;;;;;7.50;99.90;;;;;;5039509;28;1015;-73
2023/01/10 01:02:06;;;;;;;;;;;7.40;99.90;;;;;;5041877;28;1914;-72
2023/01/10 01:04:34;;;;;;;;;;;7.40;99.90;;;;;;5045331;28;1267;-72
2023/01/10 01:07:01;;;;;;;;;;;7.50;99.90;;;;;;5047347;28;1093;-72
2023/01/10 01:09:29;;;;;;;;;;;7.60;99.90;;;;;;5043559;28;1101;-71
2023/01/10 01:11:57;;;;;;;;;;;7.50;99.90;;;;;;5038752;28;1080;-72
2023/01/10 01:14:25;;;;;;;;;;;7.40;99.90;;;;;;5042502;28;1497;-72
2023/01/10 01:16:52;;;;;;;;;;;7.40;99.90;;;;;;5042326;28;1034;-72
2023/01/10 01:19:21;;;;;;;;;;;7.40;99.90;;;;;;5045909;28;1040;-73
2023/01/10 01:21:49;;;;;;;;;;;7.50;99.90;;;;;;5041073;28;1976;-72
2023/01/10 01:24:16;;;;;;;;;;;7.20;99.90;;;;;;5043250;28;1325;-73
2023/01/10 01:26:44;;;;;;;;;;;7.20;99.90;;;;;;5048095;28;1511;-74
2023/01/10 01:29:12;;;;;;;;;;;7.10;99.90;;;;;;5056261;28;1131;-72
2023/01/10 01:31:39;;;;;;;;;;;7.00;99.90;;;;;;5043709;28;1138;-74
2023/01/10 01:34:07;;;;;;;;;;;6.90;99.90;;;;;;5040658;28;1314;-72
2023/01/10 01:36:36;;;;;;;;;;;6.90;99.90;;;;;;5043195;28;1408;-72
2023/01/10 01:39:05;;;;;;;;;;;6.70;99.90;;;;;;5044923;28;1077;-73
2023/01/10 01:44:19;;;;;;;;;;;6.60;99.90;;;;;;5037229;28;1854;-71
2023/01/10 01:46:48;;;;;;;;;;;6.70;99.90;;;;;;5041817;28;1269;-73
2023/01/10 01:49:20;;;;;;;;;;;6.80;99.90;;;;;;5040709;28;1030;-72
2023/01/10 01:51:51;;;;;;;;;;;6.80;99.90;;;;;;5041404;28;1978;-72
2023/01/10 01:54:19;;;;;;;;;;;6.80;99.90;;;;;;5041911;28;1299;-71
2023/01/10 01:56:50;;;;;;;;;;;6.80;99.90;;;;;;5040344;28;1735;-72
2023/01/10 01:59:20;;;;;;;;;;;7.00;99.90;;;;;;5044335;28;1133;-71
2023/01/10 02:01:50;;;;;;;;;;;6.90;99.90;;;;;;5048397;28;1997;-71
2023/01/10 02:04:20;;;;;;;;;;;6.90;99.90;;;;;;5039165;28;1652;-71
2023/01/10 02:06:51;;;;;;;;;;;7.00;99.90;;;;;;5040755;28;1151;-72
2023/01/10 02:09:23;;;;;;;;;;;7.00;99.90;;;;;;5042708;28;1835;-72
2023/01/10 02:11:51;;;;;;;;;;;7.10;99.90;;;;;;5042413;28;1013;-72
2023/01/10 02:14:19;;;;;;;;;;;6.90;99.90;;;;;;5044443;28;1346;-72
2023/01/10 02:16:47;;;;;;;;;;;6.90;99.90;;;;;;5040049;28;1052;-72
2023/01/10 02:19:18;;;;;;;;;;;7.10;99.90;;;;;;5045554;28;1026;-71
2023/01/10 02:22:07;;;;;;;;;;;6.90;99.90;;;;;;5037899;28;2172;-71
2023/01/10 02:24:53;;;;;;;;;;;6.90;99.90;;;;;;5040133;28;1358;-71
2023/01/10 02:27:26;;;;;;;;;;;6.90;99.90;;;;;;5044114;28;1056;-69
2023/01/10 02:30:13;;;;;;;;;;;6.90;99.90;;;;;;5039987;28;1683;-70
2023/01/10 02:32:45;;;;;;;;;;;7.10;99.90;;;;;;5037130;28;1360;-70
2023/01/10 02:35:50;;;;;;;;;;;6.90;99.90;;;;;;5041170;28;1311;-71
2023/01/10 02:38:22;;;;;;;;;;;7.20;99.90;;;;;;5037476;28;1085;-73
2023/01/10 02:40:55;;;;;;;;;;;7.20;99.90;;;;;;5041249;28;1278;-72
2023/01/10 02:43:25;;;;;;;;;;;7.20;99.90;;;;;;5043311;28;1910;-72
2023/01/10 02:45:54;;;;;;;;;;;7.00;99.90;;;;;;5042862;28;1440;-71
2023/01/10 02:48:24;;;;;;;;;;;7.00;99.90;;;;;;5041344;28;1316;-71
2023/01/10 02:50:54;;;;;;;;;;;7.00;99.90;;;;;;5043104;28;1349;-72
2023/01/10 02:53:23;;;;;;;;;;;7.00;99.90;;;;;;5043923;28;1103;-71
2023/01/10 02:55:58;;;;;;;;;;;7.00;99.90;;;;;;5039599;28;1715;-71
2023/01/10 02:58:30;;;;;;;;;;;6.90;99.90;;;;;;5045334;28;1084;-72
2023/01/10 03:01:02;;;;;;;;;;;7.00;99.90;;;;;;5041935;28;1227;-72
2023/01/10 03:03:35;;;;;;;;;;;7.10;99.90;;;;;;5042865;28;1914;-71
2023/01/10 03:06:10;;;;;;;;;;;7.20;99.90;;;;;;5045511;28;1080;-72
2023/01/10 03:08:40;;;;;;;;;;;7.10;99.90;;;;;;5045730;28;1271;-72
2023/01/10 03:11:09;;;;;;;;;;;6.90;99.90;;;;;;5044267;28;1497;-72
2023/01/10 03:13:41;;;;;;;;;;;7.00;99.90;;;;;;5041594;28;1327;-73
2023/01/10 03:16:12;;;;;;;;;;;6.90;99.90;;;;;;5045449;28;2036;-73
2023/01/10 03:18:43;;;;;;;;;;;6.90;99.90;;;;;;5045389;28;1739;-72
2023/01/10 03:21:11;;;;;;;;;;;6.90;99.90;;;;;;5044674;28;1487;-71
2023/01/10 03:23:40;;;;;;;;;;;6.90;99.90;;;;;;5040652;28;2001;-71
2023/01/10 03:26:09;;;;;;;;;;;6.90;99.90;;;;;;5043811;28;1339;-71
2023/01/10 03:28:41;;;;;;;;;;;6.90;99.90;;;;;;5047378;28;1353;-74
2023/01/10 03:31:10;;;;;;;;;;;6.90;99.90;;;;;;5048184;28;1742;-72
2023/01/10 03:33:38;;;;;;;;;;;6.90;99.90;;;;;;5044423;28;1285;-71
2023/01/10 03:36:19;;;;;;;;;;;6.90;99.90;;;;;;5049439;28;1529;-71
2023/01/10 03:38:50;;;;;;;;;;;6.80;99.90;;;;;;5042221;28;1049;-71
2023/01/10 03:41:35;;;;;;;;;;;6.80;99.90;;;;;;5049422;28;994;-71
2023/01/10 03:46:54;;;;;;;;;;;6.60;99.90;;;;;;5044507;28;1053;-69
2023/01/10 03:49:23;;;;;;;;;;;6.50;99.90;;;;;;5046624;28;1061;-70
2023/01/10 03:51:52;;;;;;;;;;;6.40;99.90;;;;;;5041368;28;1075;-71
2023/01/10 03:54:20;;;;;;;;;;;6.30;99.90;;;;;;5042726;28;1801;-71
2023/01/10 03:56:49;;;;;;;;;;;6.20;99.90;;;;;;5041131;28;1089;-74
2023/01/10 03:59:18;;;;;;;;;;;6.10;99.90;;;;;;5044325;28;1248;-72
2023/01/10 04:01:45;;;;;;;;;;;6.20;99.90;;;;;;5041693;28;1982;-72
2023/01/10 04:04:13;;;;;;;;;;;6.10;99.90;;;;;;5045333;28;2018;-72
2023/01/10 04:06:40;;;;;;;;;;;6.10;99.90;;;;;;5044013;28;1180;-73
2023/01/10 04:09:09;;;;;;;;;;;5.90;99.90;;;;;;5043982;28;1300;-72
2023/01/10 04:11:37;;;;;;;;;;;5.90;99.90;;;;;;5043714;28;1093;-71
2023/01/10 04:14:05;;;;;;;;;;;5.90;99.90;;;;;;5045606;28;1308;-73
2023/01/10 04:16:32;;;;;;;;;;;5.90;99.90;;;;;;5045411;28;1031;-72
2023/01/10 04:19:02;;;;;;;;;;;5.90;99.90;;;;;;5046608;28;1020;-72
2023/01/10 04:21:30;;;;;;;;;;;5.90;99.90;;;;;;5044368;28;1040;-72
2023/01/10 04:23:57;;;;;;;;;;;5.90;99.90;;;;;;5045864;28;1902;-72
2023/01/10 04:26:26;;;;;;;;;;;5.90;99.90;;;;;;5042098;28;1041;-72
2023/01/10 04:28:54;;;;;;;;;;;5.90;99.90;;;;;;5047643;28;1072;-72
2023/01/10 04:31:22;;;;;;;;;;;6.00;99.90;;;;;;5039356;28;1684;-72
2023/01/10 04:33:49;;;;;;;;;;;6.10;99.90;;;;;;5042958;28;1310;-72
2023/01/10 04:36:17;;;;;;;;;;;6.20;99.90;;;;;;5043027;28;1128;-72
2023/01/10 04:38:45;;;;;;;;;;;6.10;99.90;;;;;;5041901;28;997;-72
2023/01/10 04:41:12;;;;;;;;;;;6.20;99.90;;;;;;5045232;28;1040;-72
2023/01/10 04:43:41;;;;;;;;;;;6.10;99.90;;;;;;5044670;28;1985;-70
2023/01/10 04:46:09;;;;;;;;;;;6.10;99.90;;;;;;5048271;28;1189;-71
2023/01/10 04:48:37;;;;;;;;;;;6.20;99.90;;;;;;5043693;28;1144;-71
2023/01/10 04:51:04;;;;;;;;;;;6.20;99.90;;;;;;5046943;28;1046;-72
2023/01/10 04:53:32;;;;;;;;;;;6.30;99.90;;;;;;5041653;28;1270;-71
2023/01/10 04:56:02;;;;;;;;;;;6.40;99.90;;;;;;5042089;28;1053;-72
2023/01/10 04:58:29;;;;;;;;;;;6.30;99.90;;;;;;5043031;28;1334;-71
2023/01/10 05:00:58;;;;;;;;;;;6.40;99.90;;;;;;5040545;28;1087;-72
2023/01/10 05:03:26;;;;;;;;;;;6.30;99.90;;;;;;5040911;28;1922;-71
2023/01/10 05:05:53;;;;;;;;;;;6.40;99.90;;;;;;5044281;28;1382;-71
2023/01/10 05:08:21;;;;;;;;;;;6.30;99.90;;;;;;5039728;28;1257;-72
2023/01/10 05:10:48;;;;;;;;;;;6.40;99.90;;;;;;5041061;28;1691;-72
2023/01/10 05:13:16;;;;;;;;;;;6.50;99.90;;;;;;5042780;28;1276;-72
2023/01/10 05:15:44;;;;;;;;;;;6.50;99.90;;;;;;5044299;28;1407;-71
2023/01/10 05:18:13;;;;;;;;;;;6.50;99.90;;;;;;5046073;28;1729;-71
2023/01/10 05:20:40;;;;;;;;;;;6.50;99.90;;;;;;5048850;28;1024;-74
2023/01/10 05:23:08;;;;;;;;;;;6.60;99.90;;;;;;5042176;28;1025;-71
2023/01/10 05:25:35;;;;;;;;;;;6.60;99.90;;;;;;5039316;28;1903;-74
2023/01/10 05:28:03;;;;;;;;;;;6.60;99.90;;;;;;5042440;28;1012;-74
2023/01/10 05:30:31;;;;;;;;;;;6.50;99.90;;;;;;5041794;28;1941;-73
2023/01/10 05:32:58;;;;;;;;;;;6.50;99.90;;;;;;5039357;28;1985;-73
2023/01/10 05:35:27;;;;;;;;;;;6.40;99.90;;;;;;5042566;28;1389;-74
2023/01/10 05:37:55;;;;;;;;;;;6.50;99.90;;;;;;5042376;28;970;-73
2023/01/10 05:40:22;;;;;;;;;;;6.40;99.90;;;;;;5043543;28;1096;-73
2023/01/10 05:42:50;;;;;;;;;;;6.50;99.90;;;;;;5044597;28;1082;-73
2023/01/10 05:45:19;;;;;;;;;;;6.40;99.90;;;;;;5046297;28;1910;-73
2023/01/10 05:47:46;;;;;;;;;;;6.30;99.90;;;;;;5042804;28;2104;-73
2023/01/10 05:50:14;;;;;;;;;;;6.50;99.90;;;;;;5043617;28;1958;-73
2023/01/10 05:52:44;;;;;;;;;;;6.40;99.90;;;;;;5043952;28;2021;-73
2023/01/10 05:55:12;;;;;;;;;;;6.30;99.90;;;;;;5049381;28;1381;-72
2023/01/10 05:57:39;;;;;;;;;;;6.40;99.90;;;;;;5041166;28;1228;-73
2023/01/10 06:00:07;;;;;;;;;;;6.30;99.90;;;;;;5040644;28;2065;-73
2023/01/10 06:02:35;;;;;;;;;;;6.20;99.90;;;;;;5043717;28;1159;-74
2023/01/10 06:05:03;;;;;;;;;;;6.20;99.90;;;;;;5041895;28;1993;-74
2023/01/10 06:07:31;;;;;;;;;;;6.20;99.90;;;;;;5043380;28;1189;-72
2023/01/10 06:10:00;;;;;;;;;;;6.20;99.90;;;;;;5039398;28;1092;-74
2023/01/10 06:12:30;;;;;;;;;;;6.00;99.90;;;;;;5041162;28;1775;-73
2023/01/10 06:14:57;;;;;;;;;;;5.90;99.90;;;;;;5041825;28;1484;-73
2023/01/10 06:17:25;;;;;;;;;;;5.90;99.90;;;;;;5043992;28;1070;-73
2023/01/10 06:19:53;;;;;;;;;;;5.90;99.90;;;;;;5044547;28;1002;-73
2023/01/10 06:22:21;;;;;;;;;;;5.80;99.90;;;;;;5042274;28;1858;-73
2023/01/10 06:24:48;;;;;;;;;;;5.80;99.90;;;;;;5042721;28;1987;-73
2023/01/10 06:27:17;;;;;;;;;;;5.80;99.90;;;;;;5043240;28;2005;-74
2023/01/10 06:29:45;;;;;;;;;;;5.70;99.90;;;;;;5043125;28;1108;-72
2023/01/10 06:32:12;;;;;;;;;;;5.70;99.90;;;;;;5050023;28;1063;-76
2023/01/10 06:34:40;;;;;;;;;;;5.90;99.90;;;;;;5046873;28;1394;-75
2023/01/10 06:37:08;;;;;;;;;;;5.80;99.90;;;;;;5046811;28;1210;-75
2023/01/10 06:39:35;;;;;;;;;;;5.80;99.90;;;;;;5046152;28;1052;-72
2023/01/10 06:42:03;;;;;;;;;;;5.90;99.90;;;;;;5042508;28;1993;-74
2023/01/10 06:44:32;;;;;;;;;;;5.90;99.90;;;;;;5045221;28;1914;-74
2023/01/10 06:47:00;;;;;;;;;;;5.90;99.90;;;;;;5046553;28;1395;-74
2023/01/10 06:49:28;;;;;;;;;;;6.00;99.90;;;;;;5046866;28;1152;-73
2023/01/10 06:51:56;;;;;;;;;;;5.80;99.90;;;;;;5043873;28;1068;-74
2023/01/10 06:54:24;;;;;;;;;;;5.70;99.90;;;;;;5046467;28;1486;-72
2023/01/10 06:56:51;;;;;;;;;;;5.80;99.90;;;;;;5045435;28;1021;-74
2023/01/10 06:59:19;;;;;;;;;;;6.00;99.90;;;;;;5041330;28;1862;-74
2023/01/10 07:01:48;;;;;;;;;;;5.70;99.90;;;;;;5042747;28;1064;-72
2023/01/10 07:04:15;;;;;;;;;;;5.70;99.90;;;;;;5045158;28;1687;-74
2023/01/10 07:06:43;;;;;;;;;;;5.70;99.90;;;;;;5045876;28;1983;-73
2023/01/10 07:09:11;;;;;;;;;;;5.70;99.90;;;;;;5043956;28;969;-74
2023/01/10 07:11:38;;;;;;;;;;;5.70;99.90;;;;;;5044786;28;1880;-74
2023/01/10 07:14:08;;;;;;;;;;;5.70;99.90;;;;;;5046617;28;1946;-73
2023/01/10 07:16:37;;;;;;;;;;;5.70;99.90;;;;;;5042725;28;994;-74
2023/01/10 07:19:06;;;;;;;;;;;5.70;99.90;;;;;;5047464;28;962;-73
2023/01/10 07:21:33;;;;;;;;;;;5.70;99.90;;;;;;5045432;28;1053;-73
2023/01/10 07:24:01;;;;;;;;;;;5.80;99.90;;;;;;5044564;28;1363;-72
2023/01/10 07:26:29;;;;;;;;;;;5.90;99.90;;;;;;5044310;28;1983;-71
2023/01/10 07:28:57;;;;;;;;;;;5.80;99.90;;;;;;5041489;28;1024;-72
2023/01/10 07:31:24;;;;;;;;;;;5.90;99.90;;;;;;5044084;28;1090;-73
2023/01/10 07:33:52;;;;;;;;;;;5.80;99.90;;;;;;5042697;28;1524;-73
2023/01/10 07:36:21;;;;;;;;;;;5.90;99.90;;;;;;5045733;28;1388;-74
2023/01/10 07:38:49;;;;;;;;;;;5.90;99.90;;;;;;5046027;28;1697;-74
2023/01/10 07:41:17;;;;;;;;;;;5.90;99.90;;;;;;5044219;28;1048;-74
2023/01/10 07:43:44;;;;;;;;;;;6.00;99.90;;;;;;5046652;28;1358;-73
2023/01/10 07:46:12;;;;;;;;;;;5.80;99.90;;;;;;5045523;28;1994;-73
2023/01/10 07:48:41;;;;;;;;;;;5.70;99.90;;;;;;5048066;28;1032;-73
2023/01/10 07:51:09;;;;;;;;;;;5.60;99.90;;;;;;5045048;28;957;-74
2023/01/10 07:53:38;;;;;;;;;;;5.60;99.90;;;;;;5046160;28;1376;-72
2023/01/10 07:56:06;;;;;;;;;;;5.60;99.90;;;;;;5043834;28;1021;-72
2023/01/10 07:58:34;;;;;;;;;;;5.60;99.90;;;;;;5045036;28;1176;-72
2023/01/10 08:01:02;;;;;;;;;;;5.60;99.90;;;;;;5044832;28;1062;-73
2023/01/10 08:03:31;;;;;;;;;;;5.80;99.90;;;;;;5044779;28;1697;-73
2023/01/10 08:05:59;;;;;;;;;;;5.80;99.90;;;;;;5053793;28;1883;-74
2023/01/10 08:08:27;;;;;;;;;;;5.90;99.90;;;;;;5054700;28;1695;-72
2023/01/10 08:10:58;;;;;;;;;;;6.00;99.90;;;;;;5043284;28;2100;-74
2023/01/10 08:13:26;;;;;;;;;;;6.20;99.90;;;;;;5045083;28;1040;-72
2023/01/10 08:15:53;;;;;;;;;;;6.30;99.90;;;;;;5042590;28;1404;-72
2023/01/10 08:18:21;;;;;;;;;;;6.20;99.90;;;;;;5043703;28;969;-73
2023/01/10 08:20:49;;;;;;;;;;;6.20;99.90;;;;;;5040510;28;1013;-72
2023/01/10 08:23:17;;;;;;;;;;;6.30;99.90;;;;;;5044339;28;1074;-74
2023/01/10 08:25:45;;;;;;;;;;;6.30;99.90;;;;;;5040795;28;1887;-73
2023/01/10 08:28:15;;;;;;;;;;;6.30;99.90;;;;;;5043058;28;1056;-74
2023/01/10 08:30:42;;;;;;;;;;;6.40;99.90;;;;;;5043157;28;1431;-74
2023/01/10 08:33:10;;;;;;;;;;;6.40;99.90;;;;;;5042106;28;1033;-74
2023/01/10 08:35:38;;;;;;;;;;;6.50;99.90;;;;;;5047580;28;1370;-74
2023/01/10 08:38:06;;;;;;;;;;;6.50;99.90;;;;;;5042528;28;2010;-74
2023/01/10 08:40:34;;;;;;;;;;;6.50;99.90;;;;;;5040415;28;1045;-74
2023/01/10 08:43:03;;;;;;;;;;;6.60;99.90;;;;;;5045001;28;1053;-73
2023/01/10 08:45:33;;;;;;;;;;;6.50;99.90;;;;;;5047032;28;2009;-74
2023/01/10 08:48:02;;;;;;;;;;;6.50;99.90;;;;;;5045268;28;1113;-74
2023/01/10 08:50:31;;;;;;;;;;;6.40;99.90;;;;;;5046682;28;1123;-73
2023/01/10 08:52:59;;;;;;;;;;;6.60;99.90;;;;;;5044062;28;1012;-73
2023/01/10 08:55:29;;;;;;;;;;;6.60;99.90;;;;;;5041781;28;1767;-74
2023/01/10 08:57:58;;;;;;;;;;;6.60;99.90;;;;;;5044101;28;1038;-72
2023/01/10 09:00:26;;;;;;;;;;;6.60;99.90;;;;;;5044568;28;1037;-72
2023/01/10 09:02:56;;;;;;;;;;;6.60;99.90;;;;;;5046575;28;1256;-72
2023/01/10 09:05:24;;;;;;;;;;;6.70;99.90;;;;;;5043619;28;2019;-72
2023/01/10 09:07:58;;;;;;;;;;;6.80;99.90;;;;;;5041526;28;1967;-73
2023/01/10 09:10:26;;;;;;;;;;;6.80;99.90;;;;;;5045528;28;1108;-73
2023/01/10 09:12:58;;;;;;;;;;;6.80;99.90;;;;;;5033309;28;1945;-73
2023/01/10 09:15:27;;;;;;;;;;;6.80;99.90;;;;;;5043097;28;1434;-72
2023/01/10 09:17:58;;;;;;;;;;;6.70;99.90;;;;;;5044265;28;1101;-72
2023/01/10 09:20:26;;;;;;;;;;;6.70;99.90;;;;;;5042115;28;1558;-72
2023/01/10 09:22:55;;;;;;;;;;;6.90;99.90;;;;;;5040920;28;1125;-72
2023/01/10 09:25:23;;;;;;;;;;;6.80;99.90;;;;;;5042394;28;1315;-72
2023/01/10 09:27:55;;;;;;;;;;;6.80;99.90;;;;;;5044398;28;1918;-72
2023/01/10 09:30:27;;;;;;;;;;;6.80;99.90;;;;;;5040691;28;1311;-73
2023/01/10 09:32:55;;;;;;;;;;;6.90;99.90;;;;;;5042513;28;1966;-72
2023/01/10 09:35:25;;;;;;;;;;;7.00;99.90;;;;;;5042579;28;1440;-72
2023/01/10 09:37:53;;;;;;;;;;;7.10;99.90;;;;;;5041192;28;1879;-72
2023/01/10 09:40:28;;;;;;;;;;;7.10;99.90;;;;;;5042086;28;1165;-73
2023/01/10 09:43:02;;;;;;;;;;;7.20;99.90;;;;;;5045837;28;1974;-71
2023/01/10 09:45:34;;;;;;;;;;;7.20;99.90;;;;;;5038421;28;1359;-74
2023/01/10 09:48:04;;;;;;;;;;;7.20;99.90;;;;;;5042154;28;1977;-75
2023/01/10 09:50:43;;;;;;;;;;;7.10;99.90;;;;;;5045161;28;1664;-76
2023/01/10 09:53:13;;;;;;;;;;;7.00;99.90;;;;;;5039664;28;1062;-75
2023/01/10 09:55:42;;;;;;;;;;;7.00;99.90;;;;;;5040021;28;2151;-76
2023/01/10 09:58:12;;;;;;;;;;;7.20;99.90;;;;;;5040705;28;1081;-74
2023/01/10 10:00:42;;;;;;;;;;;7.10;99.90;;;;;;5044286;28;1012;-75
2023/01/10 10:03:18;;;;;;;;;;;7.10;99.90;;;;;;5045208;28;1941;-73
2023/01/10 10:05:48;;;;;;;;;;;7.10;99.90;;;;;;5049777;28;1390;-71
2023/01/10 10:08:19;;;;;;;;;;;7.10;99.90;;;;;;5046322;28;1902;-76
2023/01/10 10:11:09;;;;;;;;;;;7.20;99.90;;;;;;5047175;28;772;-74
2023/01/10 10:13:44;;;;;;;;;;;7.30;99.90;;;;;;5042403;28;2021;-70
2023/01/10 10:16:19;;;;;;;;;;;7.30;99.90;;;;;;5047990;28;1650;-72
2023/01/10 10:18:53;;;;;;;;;;;7.30;99.90;;;;;;5043717;28;1085;-73
2023/01/10 10:21:28;;;;;;;;;;;7.30;99.90;;;;;;5064041;28;1049;-72
2023/01/10 10:24:07;;;;;;;;;;;7.30;99.90;;;;;;5050726;28;1270;-73
2023/01/10 10:26:36;;;;;;;;;;;7.30;99.90;;;;;;5045539;28;1911;-74
2023/01/10 10:29:19;;;;;;;;;;;7.30;99.90;;;;;;5046990;28;1031;-76
2023/01/10 10:31:51;;;;;;;;;;;7.40;99.90;;;;;;5048913;28;1597;-75
2023/01/10 10:34:22;;;;;;;;;;;7.30;99.90;;;;;;5047729;28;2081;-75
2023/01/10 10:36:54;;;;;;;;;;;7.30;99.90;;;;;;5041490;28;1866;-75
2023/01/10 10:39:24;;;;;;;;;;;7.20;99.90;;;;;;5044494;28;1579;-74
2023/01/10 10:41:52;;;;;;;;;;;7.30;99.90;;;;;;5045078;28;1135;-75
2023/01/10 10:44:31;;;;;;;;;;;7.20;99.90;;;;;;5046899;28;1417;-74
2023/01/10 10:47:00;;;;;;;;;;;7.30;99.90;;;;;;5045512;28;1902;-74
2023/01/10 10:49:42;;;;;;;;;;;7.40;99.90;;;;;;5045088;28;1008;-74
2023/01/10 10:52:17;;;;;;;;;;;7.50;99.90;;;;;;5046530;28;1671;-75
2023/01/10 10:54:46;;;;;;;;;;;7.40;99.90;;;;;;5048954;28;1306;-73
2023/01/10 10:57:14;;;;;;;;;;;7.20;99.90;;;;;;5046830;28;1081;-75
2023/01/10 10:59:44;;;;;;;;;;;7.20;99.90;;;;;;5045387;28;1334;-76
2023/01/10 11:02:18;;;;;;;;;;;7.20;99.90;;;;;;5045889;28;1553;-75
2023/01/10 11:04:46;;;;;;;;;;;7.30;99.90;;;;;;5041217;28;1411;-75
2023/01/10 11:07:17;;;;;;;;;;;7.40;99.90;;;;;;5040267;28;2021;-76
2023/01/10 11:09:47;;;;;;;;;;;7.40;99.90;;;;;;5042747;28;1266;-75
2023/01/10 11:12:17;;;;;;;;;;;7.50;99.90;;;;;;5042225;28;1158;-76
2023/01/10 11:14:45;;;;;;;;;;;7.50;99.90;;;;;;5044164;28;1283;-74
2023/01/10 11:17:24;;;;;;;;;;;7.70;99.90;;;;;;5042032;28;1021;-77
2023/01/10 11:19:56;;;;;;;;;;;7.60;99.90;;;;;;5044781;28;1025;-75
2023/01/10 11:22:27;;;;;;;;;;;7.70;99.90;;;;;;5041574;28;1945;-75
2023/01/10 11:24:56;;;;;;;;;;;7.70;99.90;;;;;;5044279;28;1448;-76
2023/01/10 11:27:25;;;;;;;;;;;7.70;99.90;;;;;;5045368;28;1910;-75
2023/01/10 11:29:56;;;;;;;;;;;7.50;99.90;;;;;;5046736;28;1084;-75
2023/01/10 11:32:28;;;;;;;;;;;7.50;99.90;;;;;;5049964;28;1009;-76
2023/01/10 11:34:58;;;;;;;;;;;7.60;99.90;;;;;;5048157;28;1372;-78
2023/01/10 11:37:32;;;;;;;;;;;7.70;99.90;;;;;;5051022;28;1131;-76
2023/01/10 11:40:17;;;;;;;;;;;7.70;99.90;;;;;;5045640;28;1791;-75
2023/01/10 11:42:45;;;;;;;;;;;7.80;99.90;;;;;;5044136;28;1507;-76
2023/01/10 11:45:23;;;;;;;;;;;7.80;99.90;;;;;;5042353;28;1272;-76
2023/01/10 11:47:53;;;;;;;;;;;7.80;99.90;;;;;;5044344;28;1910;-75
2023/01/10 11:50:22;;;;;;;;;;;7.50;99.90;;;;;;5043237;28;1556;-74
2023/01/10 11:52:51;;;;;;;;;;;7.70;99.90;;;;;;5038571;28;1831;-76
2023/01/10 11:55:20;;;;;;;;;;;7.70;99.90;;;;;;5043476;28;1350;-74
2023/01/10 11:57:54;;;;;;;;;;;7.80;99.90;;;;;;5042125;28;1961;-74
2023/01/10 12:00:22;;;;;;;;;;;7.70;99.90;;;;;;5047323;28;1260;-73
2023/01/10 12:02:51;;;;;;;;;;;7.70;99.90;;;;;;5040304;28;1097;-73
2023/01/10 12:05:20;;;;;;;;;;;7.70;99.90;;;;;;5048629;28;1689;-73
2023/01/10 12:07:56;;;;;;;;;;;7.70;99.90;;;;;;5047557;28;1915;-74
2023/01/10 12:10:25;;;;;;;;;;;7.80;99.90;;;;;;5042609;28;1092;-75
2023/01/10 12:12:54;;;;;;;;;;;7.70;99.90;;;;;;5041103;28;1252;-73
2023/01/10 12:15:22;;;;;;;;;;;7.70;99.90;;;;;;5044301;28;1293;-74
2023/01/10 12:17:50;;;;;;;;;;;7.80;99.90;;;;;;5044804;28;2051;-73
2023/01/10 12:20:18;;;;;;;;;;;8.00;99.90;;;;;;5041259;28;1677;-74
2023/01/10 12:22:47;;;;;;;;;;;7.90;99.90;;;;;;5040973;28;1290;-73
2023/01/10 12:25:18;;;;;;;;;;;7.90;99.90;;;;;;5042807;28;1264;-75
2023/01/10 12:27:49;;;;;;;;;;;7.90;99.90;;;;;;5043156;28;1946;-74
2023/01/10 12:30:18;;;;;;;;;;;8.10;99.90;;;;;;5044736;28;1068;-74
2023/01/10 12:32:47;;;;;;;;;;;8.00;99.90;;;;;;5053396;28;1009;-74
2023/01/10 12:35:17;;;;;;;;;;;7.90;99.90;;;;;;5057140;28;1345;-74
2023/01/10 12:37:46;;;;;;;;;;;8.10;99.90;;;;;;5047133;28;1096;-75
2023/01/10 12:40:15;;;;;;;;;;;8.10;99.90;;;;;;5044963;28;1061;-75
2023/01/10 12:45:35;;;;;;;;;;;8.20;99.90;;;;;;5040234;28;1268;-74
2023/01/10 12:48:06;;;;;;;;;;;8.30;99.90;;;;;;5041500;28;1914;-74
2023/01/10 12:50:36;;;;;;;;;;;8.20;99.90;;;;;;5044943;28;1121;-74
2023/01/10 12:53:06;;;;;;;;;;;8.20;99.90;;;;;;5046345;28;1038;-74
2023/01/10 12:55:36;;;;;;;;;;;8.20;99.90;;;;;;5044285;28;1235;-74
2023/01/10 12:58:07;;;;;;;;;;;8.20;99.90;;;;;;5044714;28;1049;-74
2023/01/10 13:00:37;;;;;;;;;;;8.20;99.90;;;;;;5038387;28;1032;-73
2023/01/10 13:03:16;;;;;;;;;;;8.20;99.90;;;;;;5047910;28;1087;-74
2023/01/10 13:05:48;;;;;;;;;;;8.30;99.90;;;;;;5042939;28;1381;-74
2023/01/10 13:08:17;;;;;;;;;;;8.30;99.90;;;;;;5041674;28;1918;-73
2023/01/10 13:10:47;;;;;;;;;;;8.40;99.90;;;;;;5044569;28;1711;-76
2023/01/10 13:13:20;;;;;;;;;;;8.40;99.90;;;;;;5047743;28;1112;-77
2023/01/10 13:15:50;;;;;;;;;;;8.30;99.90;;;;;;5044934;28;1492;-75
2023/01/10 13:18:23;;;;;;;;;;;8.30;99.90;;;;;;5043445;28;1049;-74
2023/01/10 13:21:01;;;;;;;;;;;8.40;99.90;;;;;;5043432;28;1068;-74
2023/01/10 13:23:32;;;;;;;;;;;8.50;99.90;;;;;;5040983;28;1020;-74
2023/01/10 13:26:01;;;;;;;;;;;8.50;99.90;;;;;;5044512;28;1089;-75
2023/01/10 13:28:32;;;;;;;;;;;8.50;99.90;;;;;;5040739;28;1985;-75
2023/01/10 13:31:01;;;;;;;;;;;8.40;99.90;;;;;;5044511;28;1042;-76
2023/01/10 13:33:30;;;;;;;;;;;8.30;99.90;;;;;;5042019;28;1028;-75
2023/01/10 13:36:06;;;;;;;;;;;8.30;99.90;;;;;;5042010;28;1192;-76
2023/01/10 13:38:37;;;;;;;;;;;8.30;99.90;;;;;;5039855;28;1108;-77
2023/01/10 13:41:06;;;;;;;;;;;8.50;99.90;;;;;;5047354;28;1045;-73
2023/01/10 13:43:39;;;;;;;;;;;8.50;99.90;;;;;;5043193;28;1264;-75
2023/01/10 13:46:25;;;;;;;;;;;8.50;99.90;;;;;;5040928;28;1540;-73
2023/01/10 13:49:12;;;;;;;;;;;8.60;99.90;;;;;;5043636;28;1918;-75
2023/01/10 13:51:59;;;;;;;;;;;8.80;99.90;;;;;;5043559;28;969;-74
2023/01/10 13:54:28;;;;;;;;;;;8.50;99.90;;;;;;5039897;28;1372;-73
2023/01/10 13:56:55;;;;;;;;;;;8.40;99.90;;;;;;5044443;28;1830;-73
2023/01/10 14:02:30;;;;;;;;;;;8.20;99.90;;;;;;5044295;28;1225;-73
2023/01/10 14:05:01;;;;;;;;;;;8.20;99.90;;;;;;5041996;28;1370;-74
2023/01/10 14:07:30;;;;;;;;;;;8.20;99.90;;;;;;5039640;28;1509;-74
2023/01/10 14:10:02;;;;;;;;;;;8.20;99.90;;;;;;5045858;28;1960;-74
2023/01/10 14:12:34;;;;;;;;;;;8.20;99.90;;;;;;5042262;28;1143;-75
2023/01/10 14:15:05;;;;;;;;;;;8.30;99.90;;;;;;5046639;28;1351;-74
2023/01/10 14:17:36;;;;;;;;;;;8.20;99.90;;;;;;5046838;28;1074;-75
2023/01/10 14:20:06;;;;;;;;;;;8.10;99.90;;;;;;5040881;28;1172;-73
2023/01/10 14:22:35;;;;;;;;;;;8.20;99.90;;;;;;5046138;28;1043;-73
2023/01/10 14:25:04;;;;;;;;;;;8.10;99.90;;;;;;5044775;28;1736;-75
2023/01/10 14:27:36;;;;;;;;;;;8.10;99.90;;;;;;5044960;28;1115;-75
2023/01/10 14:30:06;;;;;;;;;;;8.10;99.90;;;;;;5047715;28;1925;-75
2023/01/10 14:32:38;;;;;;;;;;;8.10;99.90;;;;;;5047253;28;1056;-73
2023/01/10 14:35:07;;;;;;;;;;;8.10;99.90;;;;;;5043045;28;2121;-74
2023/01/10 14:37:39;;;;;;;;;;;8.10;99.90;;;;;;5044880;28;1735;-74
2023/01/10 14:40:15;;;;;;;;;;;8.10;99.90;;;;;;5037237;28;1727;-74
2023/01/10 14:42:47;;;;;;;;;;;8.10;99.90;;;;;;5041406;28;1004;-74
2023/01/10 14:45:20;;;;;;;;;;;8.00;99.90;;;;;;5040607;28;1355;-75
2023/01/10 14:47:49;;;;;;;;;;;8.00;99.90;;;;;;5051541;28;1013;-74
2023/01/10 14:50:32;;;;;;;;;;;8.00;99.90;;;;;;5045148;28;1954;-75
2023/01/10 14:53:01;;;;;;;;;;;7.90;99.90;;;;;;5050055;28;2173;-75
2023/01/10 14:55:30;;;;;;;;;;;8.00;99.90;;;;;;5049056;28;1416;-77
2023/01/10 14:57:59;;;;;;;;;;;8.00;99.90;;;;;;5047751;28;1113;-72
2023/01/10 15:00:28;;;;;;;;;;;7.90;99.90;;;;;;5046314;28;1628;-73
2023/01/10 15:03:00;;;;;;;;;;;8.00;99.90;;;;;;5046286;28;1675;-72
2023/01/10 15:05:30;;;;;;;;;;;8.00;99.90;;;;;;5048460;28;1575;-73
2023/01/10 15:08:13;;;;;;;;;;;8.00;99.90;;;;;;5043974;28;1158;-71
2023/01/10 15:10:42;;;;;;;;;;;7.90;99.90;;;;;;5045015;28;1914;-73
2023/01/10 15:13:13;;;;;;;;;;;7.80;99.90;;;;;;5048097;28;1508;-73
2023/01/10 15:15:43;;;;;;;;;;;7.90;99.90;;;;;;5041655;28;1350;-74
2023/01/10 15:18:28;;;;;;;;;;;7.90;99.90;;;;;;5044015;28;1099;-73